Terminal Aerodrome Forecast
Issued by NWS Wilmington, OH

Current Version | Previous Version | Text Only | Print | Product List | Glossary On
Versions: 1 2 3 4 5 6 7 8 9 10 11 12 13 14 15 16 17
000 FTUS41 KILN 191120 TAFDAY TAF KDAY 191120Z 1912/2012 VRB03KT P6SM VCSH BKN090 FM191400 24006KT P6SM BKN090 FM191800 28011KT P6SM SCT040 FM192300 31005KT P6SM SKC=

USA.gov is the U.S. government's official web portal to all federal, state and local government web resources and services.